Time;durP1;ratioP1;P1;durP2;ratioP2;P2;SDS_P1;SDS_P2;PMS_P1;PMS_P2;Temp;Humidity;BMP_temperature;BMP_pressure;BME280_temperature;BME280_humidity;BME280_pressure;Samples;Min_cycle;Max_cycle;Signal;HPM_P1;HPM_P2
2022/10/24 00:01:12;;;;;;;73.45;51.40;;;20.00;78.60;;;;;;4943160;28;94182;-54
2022/10/24 00:03:38;;;;;;;73.90;52.30;;;20.00;78.40;;;;;;4941928;28;91970;-56
2022/10/24 00:06:06;;;;;;;72.43;51.25;;;20.00;78.40;;;;;;4938079;28;90608;-54
2022/10/24 00:08:33;;;;;;;72.85;51.35;;;20.00;78.30;;;;;;4933561;28;90952;-56
2022/10/24 00:10:59;;;;;;;73.40;51.78;;;20.00;78.40;;;;;;4938110;28;92202;-56
2022/10/24 00:13:24;;;;;;;73.25;51.38;;;20.00;78.20;;;;;;4936459;28;95602;-54
2022/10/24 00:15:50;;;;;;;73.93;51.95;;;20.00;78.20;;;;;;4940217;28;95085;-55
2022/10/24 00:18:16;;;;;;;74.63;51.72;;;20.00;78.30;;;;;;4949985;28;90109;-55
2022/10/24 00:20:42;;;;;;;73.13;51.35;;;20.00;78.30;;;;;;4940885;28;91242;-54
2022/10/24 00:23:08;;;;;;;73.10;51.65;;;20.00;78.40;;;;;;4944000;28;91725;-56
2022/10/24 00:25:34;;;;;;;73.88;51.55;;;20.00;78.30;;;;;;4943251;28;89686;-56
2022/10/24 00:28:00;;;;;;;73.75;51.60;;;19.90;78.20;;;;;;4947008;28;89257;-56
2022/10/24 00:30:25;;;;;;;73.65;51.10;;;19.90;78.30;;;;;;4948126;28;89604;-55
2022/10/24 00:32:52;;;;;;;74.38;52.08;;;20.00;78.30;;;;;;4948671;28;90023;-56
2022/10/24 00:35:18;;;;;;;72.88;51.22;;;19.90;78.20;;;;;;4947326;28;97824;-56
2022/10/24 00:37:44;;;;;;;73.05;51.40;;;19.90;78.30;;;;;;4943232;28;90430;-55
2022/10/24 00:40:14;;;;;;;73.43;51.90;;;19.90;78.40;;;;;;4936917;28;91700;-53
2022/10/24 00:42:40;;;;;;;73.15;51.60;;;19.90;78.40;;;;;;4948091;28;90226;-52
2022/10/24 00:45:33;;;;;;;73.03;51.22;;;19.90;78.30;;;;;;4938911;28;90441;-54
2022/10/24 00:47:59;;;;;;;72.95;51.55;;;19.90;78.40;;;;;;4937010;28;91049;-56
2022/10/24 00:50:25;;;;;;;72.70;51.47;;;19.90;78.30;;;;;;4937167;28;89933;-56
2022/10/24 00:52:51;;;;;;;74.05;51.78;;;19.90;78.30;;;;;;4934152;28;94393;-55
2022/10/24 00:55:16;;;;;;;72.63;51.35;;;19.90;78.30;;;;;;4948875;28;90733;-53
2022/10/24 00:57:50;;;;;;;72.45;51.50;;;19.90;78.30;;;;;;4948859;28;90300;-54
2022/10/24 01:00:23;;;;;;;73.65;51.63;;;19.90;78.20;;;;;;4942848;28;91374;-56
2022/10/24 01:02:48;;;;;;;72.97;52.03;;;19.90;78.40;;;;;;4938638;28;89918;-52
2022/10/24 01:05:15;;;;;;;73.05;51.20;;;19.90;78.40;;;;;;4947446;28;89909;-54
2022/10/24 01:08:06;;;;;;;72.80;51.63;;;19.80;78.10;;;;;;4943964;28;90276;-52
2022/10/24 01:10:34;;;;;;;73.20;51.22;;;19.80;78.30;;;;;;4941465;28;90160;-57
2022/10/24 01:13:26;;;;;;;72.53;51.42;;;19.80;78.20;;;;;;4943191;28;90409;-56
2022/10/24 01:16:09;;;;;;;73.65;51.72;;;19.80;78.30;;;;;;4944750;28;90146;-55
2022/10/24 01:19:00;;;;;;;72.15;51.17;;;19.80;78.10;;;;;;4938992;28;91938;-55
2022/10/24 01:21:46;;;;;;;73.32;51.20;;;19.80;78.30;;;;;;4936138;28;90168;-57
2022/10/24 01:24:32;;;;;;;72.85;51.25;;;19.80;78.20;;;;;;4942366;28;89964;-55
2022/10/24 01:27:07;;;;;;;72.43;51.20;;;19.80;78.20;;;;;;4937969;28;91086;-55
2022/10/24 01:29:56;;;;;;;72.75;51.70;;;19.80;78.30;;;;;;4951526;28;92000;-56
2022/10/24 01:32:39;;;;;;;73.25;51.60;;;19.80;78.30;;;;;;4944144;28;89822;-53
2022/10/24 01:35:34;;;;;;;73.32;51.63;;;19.80;78.30;;;;;;4942469;28;89907;-54
2022/10/24 01:38:17;;;;;;;73.20;51.70;;;19.80;78.40;;;;;;4934351;28;90103;-55
2022/10/24 01:40:44;;;;;;;72.65;51.15;;;19.80;78.40;;;;;;4946280;28;91761;-52
2022/10/24 01:43:12;;;;;;;72.50;51.10;;;19.80;78.10;;;;;;4952173;28;89516;-55
2022/10/24 01:45:42;;;;;;;73.35;51.17;;;19.80;78.30;;;;;;4953560;28;88804;-55
2022/10/24 01:48:14;;;;;;;72.03;51.05;;;19.80;78.10;;;;;;4947590;28;92787;-53
2022/10/24 01:50:43;;;;;;;72.65;51.63;;;19.80;78.30;;;;;;4949501;28;90257;-54
2022/10/24 01:53:11;;;;;;;72.68;51.60;;;19.70;78.20;;;;;;4951499;28;90969;-56
2022/10/24 01:55:38;;;;;;;72.97;51.33;;;19.70;78.30;;;;;;4945269;28;90989;-54
2022/10/24 01:58:06;;;;;;;73.28;51.28;;;19.70;78.20;;;;;;4948814;28;92507;-56
2022/10/24 02:00:32;;;;;;;73.45;51.15;;;19.70;78.00;;;;;;4944254;28;91204;-53
2022/10/24 02:03:05;;;;;;;72.68;51.30;;;19.70;78.30;;;;;;4956166;28;89967;-55
2022/10/24 02:05:38;;;;;;;73.13;51.40;;;19.70;78.20;;;;;;4932222;28;94832;-55
2022/10/24 02:08:08;;;;;;;73.22;51.15;;;19.70;78.30;;;;;;4930803;28;93835;-54
2022/10/24 02:10:40;;;;;;;73.00;51.05;;;19.70;78.10;;;;;;4947638;28;90671;-55
2022/10/24 02:13:15;;;;;;;72.38;51.08;;;19.70;78.20;;;;;;4944757;28;91068;-56
2022/10/24 02:15:47;;;;;;;74.22;51.28;;;19.70;78.10;;;;;;4942871;28;89892;-56
2022/10/24 02:18:14;;;;;;;72.40;51.28;;;19.70;78.00;;;;;;4943217;28;91587;-53
2022/10/24 02:20:58;;;;;;;73.30;51.05;;;19.70;78.00;;;;;;4942405;28;91690;-55
2022/10/24 02:23:42;;;;;;;72.57;50.90;;;19.70;78.00;;;;;;4939930;28;90316;-56
2022/10/24 02:26:13;;;;;;;73.05;50.90;;;19.70;78.00;;;;;;4946419;28;90020;-55
2022/10/24 02:28:44;;;;;;;73.10;51.25;;;19.70;78.10;;;;;;4946946;28;90710;-52
2022/10/24 02:31:23;;;;;;;72.43;50.80;;;19.70;78.10;;;;;;4949043;28;91634;-56
2022/10/24 02:33:51;;;;;;;72.07;51.15;;;19.70;78.00;;;;;;4936782;28;92810;-56
2022/10/24 02:36:22;;;;;;;72.22;50.95;;;19.70;78.00;;;;;;4940438;28;89349;-55
2022/10/24 02:38:51;;;;;;;74.50;51.47;;;19.70;77.90;;;;;;4944358;28;90528;-55
2022/10/24 02:41:24;;;;;;;72.78;51.10;;;19.70;78.00;;;;;;4944536;28;90048;-57
2022/10/24 02:43:51;;;;;;;73.13;51.25;;;19.70;78.00;;;;;;4943651;28;91918;-55
2022/10/24 02:46:19;;;;;;;72.95;51.35;;;19.70;78.00;;;;;;4937439;28;91072;-56
2022/10/24 02:48:55;;;;;;;72.07;50.92;;;19.80;78.00;;;;;;4939458;28;96446;-59
2022/10/24 02:51:24;;;;;;;72.80;51.55;;;19.70;77.90;;;;;;4946694;28;89915;-55
2022/10/24 02:53:50;;;;;;;72.75;51.20;;;19.70;77.90;;;;;;4946812;28;90184;-57
2022/10/24 02:56:16;;;;;;;73.32;51.33;;;19.70;77.80;;;;;;4936406;28;92136;-53
2022/10/24 02:58:41;;;;;;;73.78;51.08;;;19.70;77.90;;;;;;4939231;28;91103;-56
2022/10/24 03:01:07;;;;;;;73.40;51.30;;;19.80;78.00;;;;;;4940293;28;90011;-53
2022/10/24 03:03:33;;;;;;;72.15;50.90;;;19.80;78.00;;;;;;4941881;28;91761;-56
2022/10/24 03:05:59;;;;;;;71.82;50.70;;;19.70;77.80;;;;;;4942486;28;89590;-56
2022/10/24 03:08:24;;;;;;;72.78;51.45;;;19.70;77.80;;;;;;4944720;28;92609;-56
2022/10/24 03:10:50;;;;;;;73.45;51.15;;;19.80;77.90;;;;;;4941657;28;93297;-54
2022/10/24 03:13:16;;;;;;;72.38;51.13;;;19.70;77.90;;;;;;4940841;28;94640;-56
2022/10/24 03:15:41;;;;;;;73.00;51.35;;;19.70;78.00;;;;;;4940479;28;94489;-56
2022/10/24 03:18:07;;;;;;;73.82;51.42;;;19.70;77.90;;;;;;4940213;28;90259;-56
2022/10/24 03:20:33;;;;;;;72.60;51.00;;;19.70;77.90;;;;;;4942660;28;91174;-55
2022/10/24 03:22:58;;;;;;;72.15;50.92;;;19.70;78.00;;;;;;4935083;28;91355;-55
2022/10/24 03:25:24;;;;;;;72.15;51.15;;;19.70;77.90;;;;;;4946637;28;88860;-55
2022/10/24 03:27:50;;;;;;;72.53;51.13;;;19.70;77.90;;;;;;4945718;28;90302;-54
2022/10/24 03:30:15;;;;;;;73.05;51.05;;;19.70;77.90;;;;;;4946781;28;93206;-55
2022/10/24 03:32:41;;;;;;;72.18;50.97;;;19.70;77.90;;;;;;4942215;28;91416;-53
2022/10/24 03:35:07;;;;;;;73.20;51.35;;;19.70;77.80;;;;;;4943835;28;91073;-56
2022/10/24 03:37:33;;;;;;;73.43;51.40;;;19.70;77.90;;;;;;4949607;28;96681;-55
2022/10/24 03:39:59;;;;;;;72.88;51.25;;;19.70;77.70;;;;;;4947335;28;90585;-55
2022/10/24 03:42:24;;;;;;;73.32;51.15;;;19.70;77.90;;;;;;4947971;28;89792;-55
2022/10/24 03:44:50;;;;;;;72.30;51.03;;;19.70;77.90;;;;;;4950739;28;96300;-53
2022/10/24 03:47:15;;;;;;;72.75;50.97;;;19.60;77.80;;;;;;4958102;28;95285;-52
2022/10/24 03:49:41;;;;;;;72.53;51.05;;;19.70;78.00;;;;;;4948692;28;90408;-56
2022/10/24 03:52:07;;;;;;;72.03;50.90;;;19.60;77.80;;;;;;4945688;28;89954;-56
2022/10/24 03:54:34;;;;;;;72.95;51.35;;;19.70;77.80;;;;;;4944886;28;95258;-55
2022/10/24 03:57:00;;;;;;;73.85;51.13;;;19.60;77.90;;;;;;4944997;28;91699;-55
2022/10/24 03:59:26;;;;;;;74.43;51.40;;;19.70;77.90;;;;;;4943318;28;90715;-56
2022/10/24 04:01:51;;;;;;;73.10;52.42;;;19.70;77.90;;;;;;4943713;28;91877;-56
2022/10/24 04:04:17;;;;;;;72.50;51.15;;;19.60;77.80;;;;;;4950058;28;90683;-54
2022/10/24 04:06:43;;;;;;;72.93;50.72;;;19.60;78.10;;;;;;4950414;28;89992;-56
2022/10/24 04:09:08;;;;;;;72.32;50.95;;;19.60;77.90;;;;;;4951523;28;91434;-56
2022/10/24 04:11:34;;;;;;;72.72;51.28;;;19.60;77.90;;;;;;4944655;28;90407;-55
2022/10/24 04:14:00;;;;;;;72.75;51.03;;;19.60;77.90;;;;;;4942568;28;90055;-54
2022/10/24 04:16:26;;;;;;;73.03;51.05;;;19.60;77.90;;;;;;4942901;28;90459;-56
2022/10/24 04:18:52;;;;;;;73.20;51.55;;;19.60;77.90;;;;;;4946521;28;91639;-55
2022/10/24 04:21:18;;;;;;;72.85;51.05;;;19.60;77.90;;;;;;4943296;28;91668;-54
2022/10/24 04:23:44;;;;;;;72.40;51.40;;;19.60;77.80;;;;;;4940149;28;90333;-56
2022/10/24 04:26:12;;;;;;;71.93;51.05;;;19.60;77.90;;;;;;4940588;28;90797;-55
2022/10/24 04:28:38;;;;;;;72.93;50.92;;;19.60;77.80;;;;;;4948906;28;90889;-56
2022/10/24 04:31:04;;;;;;;73.00;51.45;;;19.60;77.80;;;;;;4947233;28;89898;-56
2022/10/24 04:33:30;;;;;;;73.65;51.70;;;19.60;77.80;;;;;;4949567;28;90128;-55
2022/10/24 04:35:55;;;;;;;74.28;51.10;;;19.60;77.60;;;;;;4939387;28;90792;-55
2022/10/24 04:38:21;;;;;;;72.18;50.95;;;19.60;77.80;;;;;;4950022;28;91574;-54
2022/10/24 04:40:48;;;;;;;72.75;51.22;;;19.60;77.80;;;;;;4937543;28;92677;-56
2022/10/24 04:43:14;;;;;;;72.03;51.17;;;19.60;77.80;;;;;;4952349;28;90963;-56
2022/10/24 04:45:40;;;;;;;72.10;51.05;;;19.60;77.80;;;;;;4942149;28;91286;-56
2022/10/24 04:48:06;;;;;;;73.18;51.20;;;19.60;77.80;;;;;;4948360;28;90444;-57
2022/10/24 04:50:31;;;;;;;73.43;51.13;;;19.60;77.80;;;;;;4948603;28;92125;-54
2022/10/24 04:52:57;;;;;;;72.80;50.92;;;19.60;77.80;;;;;;4938809;28;89454;-57
2022/10/24 04:55:23;;;;;;;73.75;51.15;;;19.60;77.80;;;;;;4946976;28;90293;-51
2022/10/24 04:57:48;;;;;;;73.65;50.95;;;19.60;77.80;;;;;;4946949;28;90885;-55
2022/10/24 05:00:14;;;;;;;72.10;51.00;;;19.60;77.70;;;;;;4947159;28;90149;-55
2022/10/24 05:02:40;;;;;;;72.60;51.35;;;19.60;77.80;;;;;;4933445;28;89364;-54
2022/10/24 05:05:06;;;;;;;72.97;51.25;;;19.60;77.80;;;;;;4935221;28;90122;-55
2022/10/24 05:07:32;;;;;;;72.15;50.53;;;19.60;77.70;;;;;;4943312;28;90213;-54
2022/10/24 05:09:57;;;;;;;72.13;51.05;;;19.60;77.80;;;;;;4933218;28;92119;-51
2022/10/24 05:12:23;;;;;;;72.05;51.13;;;19.60;78.00;;;;;;4941177;28;94291;-50
2022/10/24 05:14:49;;;;;;;73.43;50.85;;;19.60;78.40;;;;;;4947763;28;89912;-51
2022/10/24 05:17:14;;;;;;;72.70;50.70;;;19.60;78.70;;;;;;4943598;28;90560;-52
2022/10/24 05:19:40;;;;;;;72.47;50.88;;;19.70;78.60;;;;;;4946818;28;89965;-52
2022/10/24 05:22:06;;;;;;;73.95;51.15;;;19.60;78.70;;;;;;4946170;28;89749;-52
2022/10/24 05:24:32;;;;;;;71.90;50.72;;;19.60;78.70;;;;;;4941134;28;92527;-52
2022/10/24 05:26:57;;;;;;;73.93;51.22;;;19.60;78.60;;;;;;4946168;28;89275;-52
2022/10/24 05:29:24;;;;;;;73.30;51.05;;;19.60;78.60;;;;;;4938855;28;90835;-51
2022/10/24 05:31:50;;;;;;;72.90;50.95;;;19.60;78.40;;;;;;4950863;28;90049;-49
2022/10/24 05:34:16;;;;;;;74.30;50.92;;;19.60;78.50;;;;;;4943974;28;91297;-52
2022/10/24 05:36:42;;;;;;;71.80;50.63;;;19.50;78.50;;;;;;4944138;28;90957;-48
2022/10/24 05:39:07;;;;;;;75.63;50.75;;;19.50;78.80;;;;;;4948707;28;91377;-53
2022/10/24 05:41:33;;;;;;;72.32;50.80;;;19.50;78.70;;;;;;4954339;28;89960;-53
2022/10/24 05:43:59;;;;;;;73.03;50.83;;;19.50;78.60;;;;;;4944407;28;90328;-52
2022/10/24 05:46:25;;;;;;;73.97;51.08;;;19.50;78.60;;;;;;4946002;28;90070;-52
2022/10/24 05:48:50;;;;;;;72.85;51.25;;;19.50;78.60;;;;;;4943908;28;91635;-52
2022/10/24 05:51:16;;;;;;;72.45;50.95;;;19.50;78.50;;;;;;4949026;28;89327;-51
2022/10/24 05:53:41;;;;;;;72.85;51.05;;;19.40;78.70;;;;;;4936678;28;89995;-51
2022/10/24 05:56:09;;;;;;;73.85;51.10;;;19.50;78.70;;;;;;4947946;28;89808;-52
2022/10/24 05:58:34;;;;;;;73.00;51.67;;;19.40;78.60;;;;;;4933812;28;91887;-53
2022/10/24 06:01:00;;;;;;;72.63;50.75;;;19.50;78.70;;;;;;4946512;28;90357;-52
2022/10/24 06:03:26;;;;;;;74.28;51.17;;;19.50;79.70;;;;;;4937968;28;95883;-51
2022/10/24 06:05:51;;;;;;;72.97;51.08;;;19.50;79.40;;;;;;4946820;28;90927;-49
2022/10/24 06:08:17;;;;;;;74.38;51.03;;;19.60;79.50;;;;;;4938220;28;90269;-53
2022/10/24 06:10:48;;;;;;;73.53;51.10;;;19.60;79.60;;;;;;4946645;28;90888;-52
2022/10/24 06:13:15;;;;;;;73.23;51.53;;;19.60;79.60;;;;;;4946702;28;90663;-52
2022/10/24 06:15:42;;;;;;;78.85;51.50;;;19.60;79.70;;;;;;4941796;28;94192;-52
2022/10/24 06:18:08;;;;;;;74.40;51.22;;;19.60;79.70;;;;;;4938720;28;90970;-51
2022/10/24 06:20:33;;;;;;;73.22;50.78;;;19.60;80.30;;;;;;4914488;28;90872;-54
2022/10/24 06:22:59;;;;;;;73.28;51.20;;;19.70;79.60;;;;;;4935975;28;91488;-53
2022/10/24 06:25:25;;;;;;;77.47;51.42;;;19.60;79.40;;;;;;4942383;28;91406;-52
2022/10/24 06:27:50;;;;;;;76.45;51.10;;;19.60;79.40;;;;;;4934291;28;91918;-53
2022/10/24 06:30:16;;;;;;;73.70;51.20;;;19.60;79.20;;;;;;4948570;28;90723;-53
2022/10/24 06:32:42;;;;;;;73.43;51.22;;;19.50;79.10;;;;;;4943225;28;91403;-54
2022/10/24 06:35:11;;;;;;;74.78;51.75;;;19.50;79.10;;;;;;4947141;28;90057;-53
2022/10/24 06:37:37;;;;;;;75.22;51.28;;;19.50;78.90;;;;;;4936093;28;90615;-51
2022/10/24 06:40:03;;;;;;;74.15;51.30;;;19.60;79.20;;;;;;4941171;28;89985;-50
2022/10/24 06:42:29;;;;;;;73.53;51.15;;;19.70;79.00;;;;;;4940895;28;91135;-53
2022/10/24 06:44:55;;;;;;;75.18;51.58;;;19.80;79.30;;;;;;4943848;28;89933;-51
2022/10/24 06:47:20;;;;;;;74.47;51.08;;;19.80;79.20;;;;;;4939285;28;91835;-52
2022/10/24 06:49:46;;;;;;;73.22;51.30;;;19.90;79.00;;;;;;4939950;28;90022;-56
2022/10/24 06:52:12;;;;;;;74.50;51.13;;;19.90;79.00;;;;;;4950378;28;90167;-54
2022/10/24 06:54:38;;;;;;;75.88;51.40;;;19.80;79.20;;;;;;4936300;28;90397;-55
2022/10/24 06:57:04;;;;;;;75.15;51.50;;;19.80;79.00;;;;;;4940653;28;93862;-52
2022/10/24 06:59:29;;;;;;;75.13;50.95;;;19.80;78.80;;;;;;4937254;28;95931;-52
2022/10/24 07:01:55;;;;;;;75.40;51.17;;;19.80;78.70;;;;;;4936014;28;90239;-53
2022/10/24 07:04:21;;;;;;;75.47;51.60;;;19.80;78.40;;;;;;4942082;28;90100;-50
2022/10/24 07:06:47;;;;;;;78.75;51.22;;;19.90;78.60;;;;;;4938354;28;90781;-53
2022/10/24 07:09:13;;;;;;;73.63;51.10;;;19.90;78.40;;;;;;4945492;28;90409;-53
2022/10/24 07:11:38;;;;;;;74.72;51.53;;;19.90;78.30;;;;;;4942071;28;91009;-53
2022/10/24 07:14:05;;;;;;;75.40;52.20;;;20.00;79.00;;;;;;4946978;28;93701;-55
2022/10/24 07:16:31;;;;;;;74.00;51.25;;;20.10;78.40;;;;;;4942164;28;95980;-54
2022/10/24 07:18:56;;;;;;;74.00;51.10;;;20.10;78.30;;;;;;4942778;28;90762;-52
2022/10/24 07:21:27;;;;;;;74.93;51.38;;;20.20;78.40;;;;;;4947557;28;92194;-54
2022/10/24 07:23:53;;;;;;;72.93;51.27;;;20.20;78.40;;;;;;4943981;28;90081;-49
2022/10/24 07:26:22;;;;;;;75.93;51.38;;;20.20;78.60;;;;;;4946202;28;90780;-50
2022/10/24 07:28:53;;;;;;;76.95;51.22;;;20.30;78.60;;;;;;4952707;28;90516;-54
2022/10/24 07:31:24;;;;;;;77.75;51.30;;;20.30;78.70;;;;;;4952954;28;90796;-55
2022/10/24 07:33:51;;;;;;;75.63;51.55;;;20.30;78.70;;;;;;4948737;28;90428;-52
2022/10/24 07:36:20;;;;;;;76.00;51.78;;;20.30;78.80;;;;;;4940871;28;91041;-50
2022/10/24 07:38:47;;;;;;;75.18;51.65;;;20.30;78.80;;;;;;4944975;28;95496;-54
2022/10/24 07:41:13;;;;;;;74.00;51.47;;;20.40;78.90;;;;;;4940493;28;90565;-55
2022/10/24 07:43:39;;;;;;;75.80;51.55;;;20.40;78.70;;;;;;4939421;28;90530;-55
2022/10/24 07:46:07;;;;;;;76.40;51.63;;;20.30;77.30;;;;;;4935295;28;90312;-55
2022/10/24 07:48:33;;;;;;;74.20;51.45;;;20.20;78.10;;;;;;4949172;28;90569;-53
2022/10/24 07:50:59;;;;;;;75.22;51.53;;;20.10;77.50;;;;;;4950359;28;96034;-55
2022/10/24 07:53:26;;;;;;;76.63;51.63;;;20.10;77.10;;;;;;4950017;28;91006;-55
2022/10/24 07:55:53;;;;;;;76.47;51.25;;;20.10;76.70;;;;;;4948226;28;90076;-52
2022/10/24 07:58:19;;;;;;;74.35;51.50;;;20.10;76.70;;;;;;4950501;28;90308;-51
2022/10/24 08:00:46;;;;;;;74.90;51.38;;;20.10;76.40;;;;;;4946660;28;91090;-51
2022/10/24 08:03:12;;;;;;;73.65;51.42;;;20.10;76.40;;;;;;4948772;28;90211;-54
2022/10/24 08:05:41;;;;;;;75.50;51.38;;;20.00;76.20;;;;;;4939561;28;90360;-55
2022/10/24 08:08:07;;;;;;;75.90;51.40;;;20.00;76.30;;;;;;4952687;28;91880;-54
2022/10/24 08:10:33;;;;;;;74.93;51.53;;;20.00;76.20;;;;;;4951979;28;90257;-52
2022/10/24 08:12:58;;;;;;;76.68;51.55;;;20.10;76.50;;;;;;4942741;28;91912;-54
2022/10/24 08:15:26;;;;;;;75.93;51.42;;;20.10;76.10;;;;;;4950124;28;92053;-55
2022/10/24 08:17:53;;;;;;;76.38;52.47;;;20.00;76.40;;;;;;4946333;28;89076;-54
2022/10/24 08:20:19;;;;;;;75.20;51.70;;;19.90;76.40;;;;;;4953531;28;90149;-52
2022/10/24 08:22:45;;;;;;;79.57;51.92;;;19.90;76.40;;;;;;4947269;28;90088;-55
2022/10/24 08:25:13;;;;;;;77.20;51.72;;;19.90;76.50;;;;;;4950784;28;90731;-53
2022/10/24 08:27:39;;;;;;;77.25;51.75;;;19.90;76.30;;;;;;4948411;28;91477;-54
2022/10/24 08:30:06;;;;;;;76.07;52.10;;;19.90;76.00;;;;;;4954360;28;89675;-55
2022/10/24 08:32:32;;;;;;;76.60;51.75;;;19.90;76.10;;;;;;4943775;28;90607;-52
2022/10/24 08:34:58;;;;;;;79.03;52.17;;;19.90;75.90;;;;;;4947763;28;90319;-53
2022/10/24 08:37:23;;;;;;;78.65;52.08;;;19.90;75.90;;;;;;4950471;28;89896;-53
2022/10/24 08:39:49;;;;;;;76.50;51.83;;;19.90;75.80;;;;;;4949647;28;89864;-53
2022/10/24 08:42:17;;;;;;;80.95;51.95;;;19.90;75.60;;;;;;4946534;28;92115;-54
2022/10/24 08:44:44;;;;;;;77.85;51.83;;;19.90;75.50;;;;;;4954287;28;90234;-53
2022/10/24 08:47:38;;;;;;;76.68;51.90;;;19.90;75.20;;;;;;4948155;28;89802;-55
2022/10/24 08:50:28;;;;;;;77.20;51.95;;;19.90;75.20;;;;;;4942833;28;91079;-53
2022/10/24 08:53:08;;;;;;;78.90;52.25;;;19.90;75.20;;;;;;4948855;28;91742;-53
2022/10/24 08:56:00;;;;;;;78.90;52.33;;;20.00;75.20;;;;;;4954080;28;89760;-54
2022/10/24 08:58:29;;;;;;;77.45;52.00;;;19.90;75.30;;;;;;4944699;28;90637;-52
2022/10/24 09:00:59;;;;;;;77.47;52.13;;;19.90;75.30;;;;;;4952038;28;90072;-51
2022/10/24 09:03:43;;;;;;;77.03;52.05;;;19.90;75.50;;;;;;4947710;28;90323;-54
2022/10/24 09:06:15;;;;;;;78.68;52.22;;;19.90;75.00;;;;;;4942717;28;89869;-54
2022/10/24 09:08:50;;;;;;;79.22;51.92;;;19.80;75.00;;;;;;4941229;28;89173;-52
2022/10/24 09:11:20;;;;;;;77.15;52.22;;;19.80;75.20;;;;;;4953394;28;90119;-53
2022/10/24 09:13:46;;;;;;;79.97;52.38;;;19.80;75.50;;;;;;4946773;28;90733;-52
2022/10/24 09:16:16;;;;;;;78.85;52.15;;;19.80;75.00;;;;;;4929089;28;92032;-52
2022/10/24 09:18:45;;;;;;;78.55;51.90;;;19.80;74.70;;;;;;4941495;28;90937;-51
2022/10/24 09:21:13;;;;;;;78.47;51.90;;;19.80;75.10;;;;;;4939471;28;91224;-53
2022/10/24 09:23:41;;;;;;;79.93;52.15;;;19.90;75.40;;;;;;4949965;28;89741;-54
2022/10/24 09:26:20;;;;;;;77.38;52.25;;;19.90;75.30;;;;;;4953073;28;90804;-52
2022/10/24 09:28:49;;;;;;;79.30;52.83;;;19.90;75.10;;;;;;4954293;28;89544;-53
2022/10/24 09:31:20;;;;;;;81.95;53.45;;;19.90;74.80;;;;;;4940891;28;90082;-52
2022/10/24 09:33:48;;;;;;;114.82;61.00;;;19.90;74.10;;;;;;4954726;28;90118;-49
2022/10/24 09:36:16;;;;;;;121.38;64.35;;;20.00;74.60;;;;;;4937196;28;90117;-48
2022/10/24 09:38:44;;;;;;;114.25;64.93;;;20.00;74.30;;;;;;4937852;28;90562;-48
2022/10/24 09:41:12;;;;;;;113.53;63.67;;;20.10;74.50;;;;;;4943936;28;91165;-48
2022/10/24 09:43:44;;;;;;;114.95;63.15;;;20.10;74.70;;;;;;4943040;28;91095;-57
2022/10/24 09:46:15;;;;;;;113.30;63.88;;;20.10;74.60;;;;;;4937075;28;91737;-48
2022/10/24 09:48:41;;;;;;;115.72;64.22;;;20.10;74.60;;;;;;4943184;28;90215;-53
2022/10/24 09:51:07;;;;;;;108.90;64.35;;;20.10;74.60;;;;;;4937405;28;93272;-52
2022/10/24 09:53:36;;;;;;;104.38;63.47;;;20.20;74.60;;;;;;4939352;28;91281;-51
2022/10/24 09:56:13;;;;;;;107.95;62.00;;;20.30;74.60;;;;;;4940197;28;90174;-55
2022/10/24 09:58:39;;;;;;;106.35;63.45;;;20.30;75.00;;;;;;4942565;28;89637;-52
2022/10/24 10:01:17;;;;;;;104.15;60.65;;;20.30;75.20;;;;;;4951824;28;90374;-54
2022/10/24 10:04:03;;;;;;;101.90;60.15;;;20.30;75.10;;;;;;4943669;28;89859;-52
2022/10/24 10:06:31;;;;;;;103.05;60.35;;;20.40;75.10;;;;;;4940536;28;91112;-53
2022/10/24 10:08:57;;;;;;;99.63;59.40;;;20.50;75.10;;;;;;4943053;28;90393;-54
2022/10/24 10:11:30;;;;;;;98.47;60.03;;;20.50;75.10;;;;;;4934923;28;90692;-55
2022/10/24 10:13:58;;;;;;;103.72;59.72;;;20.60;74.70;;;;;;4944338;28;90577;-54
2022/10/24 10:16:30;;;;;;;97.72;59.95;;;20.60;75.40;;;;;;4940635;28;90825;-53
2022/10/24 10:19:17;;;;;;;97.18;59.50;;;20.60;75.40;;;;;;4944905;28;90865;-54
2022/10/24 10:22:01;;;;;;;100.32;59.33;;;20.60;75.60;;;;;;4943844;28;92886;-54
2022/10/24 10:24:42;;;;;;;98.65;59.50;;;20.70;75.60;;;;;;4941100;28;90456;-58
2022/10/24 10:27:29;;;;;;;;;;;20.70;75.50;;;;;;4934106;28;91351;-56
2022/10/24 10:30:13;;;;;;;93.93;58.53;;;20.70;75.50;;;;;;4943404;28;90022;-57
2022/10/24 10:33:05;;;;;;;96.95;58.72;;;20.80;75.60;;;;;;4940193;28;91648;-55
2022/10/24 10:35:47;;;;;;;91.28;58.42;;;20.80;75.70;;;;;;4942274;28;91601;-52
2022/10/24 10:38:32;;;;;;;90.90;58.40;;;20.80;75.60;;;;;;4938312;28;90645;-58
2022/10/24 10:41:12;;;;;;;94.25;58.53;;;20.70;75.30;;;;;;4938067;28;90162;-55
2022/10/24 10:44:02;;;;;;;92.85;56.63;;;20.70;75.40;;;;;;4943169;28;91230;-55
2022/10/24 10:46:33;;;;;;;87.45;56.33;;;20.70;75.30;;;;;;4942957;28;90238;-51
2022/10/24 10:49:09;;;;;;;89.75;56.63;;;20.70;75.20;;;;;;4948405;28;96092;-52
2022/10/24 10:51:50;;;;;;;86.78;56.03;;;20.70;73.80;;;;;;4946611;28;89393;-55
2022/10/24 10:54:54;;;;;;;94.50;56.17;;;20.60;74.90;;;;;;4940885;28;90193;-58
2022/10/24 10:57:42;;;;;;;88.93;55.38;;;20.60;74.80;;;;;;4942767;28;90030;-55
2022/10/24 11:00:15;;;;;;;86.68;55.15;;;20.70;74.30;;;;;;4938181;28;90988;-55
2022/10/24 11:03:09;;;;;;;83.70;55.22;;;20.80;74.00;;;;;;4935628;28;92284;-55
2022/10/24 11:05:44;;;;;;;85.65;54.80;;;20.80;73.90;;;;;;4946100;28;91138;-52
2022/10/24 11:08:38;;;;;;;84.10;54.85;;;20.80;74.00;;;;;;4946101;28;91271;-56
2022/10/24 11:11:30;;;;;;;83.15;54.40;;;20.70;73.90;;;;;;4939748;28;91225;-54
2022/10/24 11:13:58;;;;;;;;;;;20.70;73.80;;;;;;4935018;28;90904;-55
2022/10/24 11:16:28;;;;;;;80.85;53.92;;;20.70;73.80;;;;;;4949779;28;90129;-56
2022/10/24 11:19:05;;;;;;;85.25;54.08;;;20.70;73.70;;;;;;4944673;28;90835;-52
2022/10/24 11:21:34;;;;;;;83.68;53.33;;;20.70;73.50;;;;;;4947337;28;92795;-56
2022/10/24 11:24:14;;;;;;;83.05;54.25;;;20.80;73.50;;;;;;4940220;28;90036;-57
2022/10/24 11:27:08;;;;;;;84.03;54.33;;;20.90;73.80;;;;;;4939216;28;92288;-53
2022/10/24 11:30:06;;;;;;;83.30;53.25;;;20.90;73.80;;;;;;4943113;28;92425;-51
2022/10/24 11:32:37;;;;;;;80.53;53.75;;;21.00;73.80;;;;;;4945316;28;90716;-49
2022/10/24 11:35:32;;;;;;;84.45;53.70;;;21.00;73.80;;;;;;4949253;28;90541;-54
2022/10/24 11:38:20;;;;;;;81.10;53.33;;;21.00;73.50;;;;;;4940241;28;92142;-52
2022/10/24 11:40:50;;;;;;;81.00;53.85;;;21.00;74.00;;;;;;4945945;28;90455;-57
2022/10/24 11:43:24;;;;;;;81.88;53.53;;;21.00;74.00;;;;;;4949656;28;91533;-50
2022/10/24 11:45:59;;;;;;;82.32;53.45;;;21.10;74.00;;;;;;4947610;28;89400;-58
2022/10/24 11:48:33;;;;;;;81.93;53.58;;;21.10;74.10;;;;;;4951761;28;92913;-53
2022/10/24 11:51:30;;;;;;;79.68;52.97;;;21.10;74.30;;;;;;4944184;28;90535;-52
2022/10/24 11:54:20;;;;;;;80.60;53.13;;;21.00;74.10;;;;;;4937105;28;90477;-54
2022/10/24 11:56:48;;;;;;;78.87;52.43;;;21.00;74.10;;;;;;4941911;28;90320;-52
2022/10/24 11:59:23;;;;;;;76.93;52.75;;;20.90;72.00;;;;;;4951209;28;91090;-56
2022/10/24 12:02:03;;;;;;;78.65;52.67;;;20.80;70.40;;;;;;4950853;28;90319;-52
2022/10/24 12:05:02;;;;;;;77.35;52.05;;;20.60;70.30;;;;;;4943556;28;92026;-52
2022/10/24 12:08:05;;;;;;;76.13;52.08;;;20.60;70.70;;;;;;4945200;28;90452;-55
2022/10/24 12:11:05;;;;;;;75.20;51.85;;;20.60;69.80;;;;;;4941067;28;90098;-51
2022/10/24 12:13:39;;;;;;;76.78;52.03;;;20.50;70.20;;;;;;4943663;28;90391;-53
2022/10/24 12:16:22;;;;;;;76.30;51.85;;;20.50;70.30;;;;;;4942244;28;91022;-53
2022/10/24 12:18:51;;;;;;;76.13;52.20;;;20.50;70.70;;;;;;4948600;28;89874;-52
2022/10/24 12:21:24;;;;;;;79.70;51.70;;;20.50;70.90;;;;;;4941354;28;91560;-55
2022/10/24 12:24:20;;;;;;;76.57;52.45;;;20.50;70.80;;;;;;4938278;28;91061;-56
2022/10/24 12:26:55;;;;;;;78.82;52.92;;;20.50;70.70;;;;;;4945798;28;93374;-56
2022/10/24 12:29:24;;;;;;;77.82;52.30;;;20.50;70.90;;;;;;4959123;28;89761;-55
2022/10/24 12:31:51;;;;;;;80.10;52.45;;;20.50;70.60;;;;;;4944826;28;90753;-52
2022/10/24 12:34:21;;;;;;;77.20;52.33;;;20.50;70.60;;;;;;4940880;28;93637;-52
2022/10/24 12:37:08;;;;;;;78.80;52.20;;;20.40;70.80;;;;;;4948333;28;91391;-52
2022/10/24 12:39:45;;;;;;;76.60;52.13;;;20.40;70.70;;;;;;4945776;28;92345;-52
2022/10/24 12:42:14;;;;;;;78.63;52.90;;;20.40;71.00;;;;;;4944951;28;91296;-51
2022/10/24 12:44:41;;;;;;;80.30;52.30;;;20.40;71.10;;;;;;4944989;28;90633;-53
2022/10/24 12:48:02;;;;;;;80.22;52.13;;;20.30;71.30;;;;;;4943436;28;90620;-54